sensor_id;sensor_type;location;lat;lon;timestamp;P1;durP1;ratioP1;P2;durP2;ratioP2
68192;SDS011;55012;47.562;18.414;2023-06-22T00:02:13;12.88;;;5.18;;
68192;SDS011;55012;47.562;18.414;2023-06-22T00:04:39;8.98;;;4.90;;
68192;SDS011;55012;47.562;18.414;2023-06-22T00:07:05;7.50;;;4.72;;
68192;SDS011;55012;47.562;18.414;2023-06-22T00:09:31;11.60;;;5.28;;
68192;SDS011;55012;47.562;18.414;2023-06-22T00:11:56;7.65;;;4.70;;
68192;SDS011;55012;47.562;18.414;2023-06-22T00:14:22;10.65;;;4.40;;
68192;SDS011;55012;47.562;18.414;2023-06-22T00:16:47;10.68;;;4.07;;
68192;SDS011;55012;47.562;18.414;2023-06-22T00:19:14;8.80;;;4.28;;
68192;SDS011;55012;47.562;18.414;2023-06-22T00:21:40;8.20;;;3.85;;
68192;SDS011;55012;47.562;18.414;2023-06-22T00:24:06;7.35;;;4.13;;
68192;SDS011;55012;47.562;18.414;2023-06-22T00:26:31;8.20;;;4.03;;
68192;SDS011;55012;47.562;18.414;2023-06-22T00:28:57;8.15;;;3.88;;
68192;SDS011;55012;47.562;18.414;2023-06-22T00:31:22;8.85;;;3.83;;
68192;SDS011;55012;47.562;18.414;2023-06-22T00:33:48;7.57;;;3.75;;
68192;SDS011;55012;47.562;18.414;2023-06-22T00:36:15;10.35;;;4.10;;
68192;SDS011;55012;47.562;18.414;2023-06-22T00:38:42;8.75;;;3.92;;
68192;SDS011;55012;47.562;18.414;2023-06-22T00:41:08;9.63;;;4.10;;
68192;SDS011;55012;47.562;18.414;2023-06-22T00:43:33;8.02;;;4.65;;
68192;SDS011;55012;47.562;18.414;2023-06-22T00:45:59;7.65;;;4.05;;
68192;SDS011;55012;47.562;18.414;2023-06-22T00:48:25;8.70;;;4.18;;
68192;SDS011;55012;47.562;18.414;2023-06-22T00:50:51;9.35;;;4.30;;
68192;SDS011;55012;47.562;18.414;2023-06-22T00:53:18;7.32;;;4.13;;
68192;SDS011;55012;47.562;18.414;2023-06-22T00:55:45;8.43;;;3.80;;
68192;SDS011;55012;47.562;18.414;2023-06-22T00:58:16;7.55;;;3.88;;
68192;SDS011;55012;47.562;18.414;2023-06-22T01:00:42;8.50;;;3.85;;
68192;SDS011;55012;47.562;18.414;2023-06-22T01:03:08;9.77;;;3.70;;
68192;SDS011;55012;47.562;18.414;2023-06-22T01:05:33;11.50;;;3.83;;
68192;SDS011;55012;47.562;18.414;2023-06-22T01:13:45;11.32;;;4.15;;
68192;SDS011;55012;47.562;18.414;2023-06-22T01:16:23;7.72;;;3.80;;
68192;SDS011;55012;47.562;18.414;2023-06-22T01:18:51;7.22;;;4.20;;
68192;SDS011;55012;47.562;18.414;2023-06-22T01:21:20;7.15;;;3.78;;
68192;SDS011;55012;47.562;18.414;2023-06-22T01:29:51;9.45;;;3.78;;
68192;SDS011;55012;47.562;18.414;2023-06-22T01:34:52;10.50;;;4.45;;
68192;SDS011;55012;47.562;18.414;2023-06-22T01:37:17;9.27;;;3.78;;
68192;SDS011;55012;47.562;18.414;2023-06-22T01:39:43;11.00;;;4.03;;
68192;SDS011;55012;47.562;18.414;2023-06-22T01:42:10;10.50;;;4.20;;
68192;SDS011;55012;47.562;18.414;2023-06-22T01:44:35;9.48;;;3.90;;
68192;SDS011;55012;47.562;18.414;2023-06-22T01:47:02;11.70;;;4.05;;
68192;SDS011;55012;47.562;18.414;2023-06-22T01:49:28;8.85;;;3.95;;
68192;SDS011;55012;47.562;18.414;2023-06-22T01:51:55;10.50;;;4.20;;
68192;SDS011;55012;47.562;18.414;2023-06-22T01:54:21;8.63;;;4.00;;
68192;SDS011;55012;47.562;18.414;2023-06-22T01:56:46;9.25;;;4.10;;
68192;SDS011;55012;47.562;18.414;2023-06-22T01:59:13;8.45;;;3.70;;
68192;SDS011;55012;47.562;18.414;2023-06-22T02:01:44;10.32;;;3.70;;
68192;SDS011;55012;47.562;18.414;2023-06-22T02:04:21;9.85;;;4.13;;
68192;SDS011;55012;47.562;18.414;2023-06-22T02:06:50;9.02;;;3.70;;
68192;SDS011;55012;47.562;18.414;2023-06-22T02:09:21;8.32;;;4.00;;
68192;SDS011;55012;47.562;18.414;2023-06-22T02:11:48;10.65;;;3.80;;
68192;SDS011;55012;47.562;18.414;2023-06-22T02:14:19;8.43;;;4.20;;
68192;SDS011;55012;47.562;18.414;2023-06-22T02:16:46;7.47;;;3.80;;
68192;SDS011;55012;47.562;18.414;2023-06-22T02:19:12;12.52;;;6.13;;
68192;SDS011;55012;47.562;18.414;2023-06-22T02:21:40;12.35;;;5.68;;
68192;SDS011;55012;47.562;18.414;2023-06-22T02:24:06;7.82;;;3.83;;
68192;SDS011;55012;47.562;18.414;2023-06-22T02:26:31;9.85;;;5.28;;
68192;SDS011;55012;47.562;18.414;2023-06-22T02:28:57;10.90;;;4.30;;
68192;SDS011;55012;47.562;18.414;2023-06-22T02:31:23;9.02;;;4.35;;
68192;SDS011;55012;47.562;18.414;2023-06-22T02:33:56;10.05;;;4.85;;
68192;SDS011;55012;47.562;18.414;2023-06-22T02:36:23;7.63;;;4.38;;
68192;SDS011;55012;47.562;18.414;2023-06-22T02:38:50;8.90;;;4.60;;
68192;SDS011;55012;47.562;18.414;2023-06-22T02:41:15;8.57;;;4.65;;
68192;SDS011;55012;47.562;18.414;2023-06-22T02:43:44;10.32;;;4.82;;
68192;SDS011;55012;47.562;18.414;2023-06-22T02:46:12;9.07;;;4.40;;
68192;SDS011;55012;47.562;18.414;2023-06-22T02:48:39;8.30;;;4.80;;
68192;SDS011;55012;47.562;18.414;2023-06-22T02:51:05;7.57;;;4.70;;
68192;SDS011;55012;47.562;18.414;2023-06-22T02:53:30;7.32;;;4.57;;
68192;SDS011;55012;47.562;18.414;2023-06-22T02:55:56;7.93;;;4.55;;
68192;SDS011;55012;47.562;18.414;2023-06-22T02:58:22;11.35;;;5.03;;
68192;SDS011;55012;47.562;18.414;2023-06-22T03:00:47;12.55;;;5.18;;
68192;SDS011;55012;47.562;18.414;2023-06-22T03:03:13;9.32;;;5.05;;
68192;SDS011;55012;47.562;18.414;2023-06-22T03:05:38;16.85;;;8.50;;
68192;SDS011;55012;47.562;18.414;2023-06-22T03:08:05;16.23;;;8.50;;
68192;SDS011;55012;47.562;18.414;2023-06-22T03:10:30;15.52;;;8.38;;
68192;SDS011;55012;47.562;18.414;2023-06-22T03:12:56;16.85;;;7.85;;
68192;SDS011;55012;47.562;18.414;2023-06-22T03:15:21;16.75;;;6.82;;
68192;SDS011;55012;47.562;18.414;2023-06-22T03:17:46;8.98;;;5.57;;
68192;SDS011;55012;47.562;18.414;2023-06-22T03:20:12;11.60;;;5.57;;
68192;SDS011;55012;47.562;18.414;2023-06-22T03:22:38;11.13;;;5.80;;
68192;SDS011;55012;47.562;18.414;2023-06-22T03:25:05;10.43;;;5.68;;
68192;SDS011;55012;47.562;18.414;2023-06-22T03:27:38;12.13;;;6.30;;
68192;SDS011;55012;47.562;18.414;2023-06-22T03:30:05;9.35;;;6.10;;
68192;SDS011;55012;47.562;18.414;2023-06-22T03:32:32;13.73;;;6.57;;
68192;SDS011;55012;47.562;18.414;2023-06-22T03:34:57;10.77;;;6.55;;
68192;SDS011;55012;47.562;18.414;2023-06-22T03:37:27;13.32;;;6.47;;
68192;SDS011;55012;47.562;18.414;2023-06-22T03:39:53;13.18;;;6.55;;
68192;SDS011;55012;47.562;18.414;2023-06-22T03:42:19;12.02;;;6.47;;
68192;SDS011;55012;47.562;18.414;2023-06-22T03:44:44;14.00;;;6.63;;
68192;SDS011;55012;47.562;18.414;2023-06-22T03:47:10;11.52;;;5.80;;
68192;SDS011;55012;47.562;18.414;2023-06-22T03:49:35;11.13;;;6.00;;
68192;SDS011;55012;47.562;18.414;2023-06-22T03:52:01;10.93;;;5.70;;
68192;SDS011;55012;47.562;18.414;2023-06-22T03:54:28;14.05;;;5.93;;
68192;SDS011;55012;47.562;18.414;2023-06-22T03:56:54;13.10;;;6.00;;
68192;SDS011;55012;47.562;18.414;2023-06-22T03:59:21;12.20;;;6.10;;
68192;SDS011;55012;47.562;18.414;2023-06-22T04:01:46;11.93;;;5.80;;
68192;SDS011;55012;47.562;18.414;2023-06-22T04:04:12;11.07;;;5.72;;
68192;SDS011;55012;47.562;18.414;2023-06-22T04:06:37;13.77;;;5.82;;
68192;SDS011;55012;47.562;18.414;2023-06-22T04:09:03;10.88;;;5.45;;
68192;SDS011;55012;47.562;18.414;2023-06-22T04:11:28;14.38;;;5.63;;
68192;SDS011;55012;47.562;18.414;2023-06-22T04:13:54;10.52;;;5.28;;
68192;SDS011;55012;47.562;18.414;2023-06-22T04:16:19;21.00;;;6.10;;
68192;SDS011;55012;47.562;18.414;2023-06-22T04:18:45;12.20;;;6.53;;
68192;SDS011;55012;47.562;18.414;2023-06-22T04:21:10;12.60;;;6.00;;
68192;SDS011;55012;47.562;18.414;2023-06-22T04:23:35;13.07;;;5.38;;
68192;SDS011;55012;47.562;18.414;2023-06-22T04:26:01;11.50;;;5.75;;
68192;SDS011;55012;47.562;18.414;2023-06-22T04:28:26;11.50;;;5.78;;
68192;SDS011;55012;47.562;18.414;2023-06-22T04:30:52;12.90;;;5.68;;
68192;SDS011;55012;47.562;18.414;2023-06-22T04:33:17;15.07;;;5.25;;
68192;SDS011;55012;47.562;18.414;2023-06-22T04:35:46;11.13;;;5.15;;
68192;SDS011;55012;47.562;18.414;2023-06-22T04:38:12;13.32;;;5.88;;
68192;SDS011;55012;47.562;18.414;2023-06-22T04:40:40;13.23;;;5.70;;
68192;SDS011;55012;47.562;18.414;2023-06-22T04:43:06;11.25;;;5.70;;
68192;SDS011;55012;47.562;18.414;2023-06-22T04:45:32;12.30;;;6.53;;
68192;SDS011;55012;47.562;18.414;2023-06-22T04:47:58;13.25;;;6.60;;
68192;SDS011;55012;47.562;18.414;2023-06-22T04:50:24;13.88;;;6.65;;
68192;SDS011;55012;47.562;18.414;2023-06-22T04:52:50;13.00;;;5.75;;
68192;SDS011;55012;47.562;18.414;2023-06-22T04:55:16;12.90;;;6.60;;
68192;SDS011;55012;47.562;18.414;2023-06-22T04:57:48;10.57;;;5.30;;
68192;SDS011;55012;47.562;18.414;2023-06-22T05:00:23;14.35;;;6.68;;
68192;SDS011;55012;47.562;18.414;2023-06-22T05:02:48;10.43;;;5.82;;
68192;SDS011;55012;47.562;18.414;2023-06-22T05:05:14;11.68;;;6.10;;
68192;SDS011;55012;47.562;18.414;2023-06-22T05:07:44;12.73;;;6.45;;
68192;SDS011;55012;47.562;18.414;2023-06-22T05:10:13;19.15;;;6.05;;
68192;SDS011;55012;47.562;18.414;2023-06-22T05:12:40;13.30;;;5.85;;
68192;SDS011;55012;47.562;18.414;2023-06-22T05:15:07;14.98;;;6.50;;
68192;SDS011;55012;47.562;18.414;2023-06-22T05:17:33;12.20;;;6.38;;
68192;SDS011;55012;47.562;18.414;2023-06-22T05:19:59;11.95;;;6.20;;
68192;SDS011;55012;47.562;18.414;2023-06-22T05:22:25;15.32;;;6.72;;
68192;SDS011;55012;47.562;18.414;2023-06-22T05:24:51;9.50;;;5.65;;
68192;SDS011;55012;47.562;18.414;2023-06-22T05:27:16;12.82;;;6.55;;
68192;SDS011;55012;47.562;18.414;2023-06-22T05:29:41;17.20;;;7.00;;
68192;SDS011;55012;47.562;18.414;2023-06-22T05:32:07;16.20;;;6.40;;
68192;SDS011;55012;47.562;18.414;2023-06-22T05:34:33;13.88;;;6.45;;
68192;SDS011;55012;47.562;18.414;2023-06-22T05:36:59;13.05;;;5.47;;
68192;SDS011;55012;47.562;18.414;2023-06-22T05:39:25;18.35;;;7.82;;
68192;SDS011;55012;47.562;18.414;2023-06-22T05:41:53;20.02;;;7.93;;
68192;SDS011;55012;47.562;18.414;2023-06-22T05:44:19;12.07;;;5.57;;
68192;SDS011;55012;47.562;18.414;2023-06-22T05:46:44;10.07;;;5.78;;
68192;SDS011;55012;47.562;18.414;2023-06-22T05:49:12;8.90;;;5.43;;
68192;SDS011;55012;47.562;18.414;2023-06-22T05:51:38;12.48;;;5.95;;
68192;SDS011;55012;47.562;18.414;2023-06-22T05:54:03;12.13;;;6.10;;
68192;SDS011;55012;47.562;18.414;2023-06-22T05:56:29;11.10;;;5.53;;
68192;SDS011;55012;47.562;18.414;2023-06-22T05:58:54;12.00;;;5.85;;
68192;SDS011;55012;47.562;18.414;2023-06-22T06:01:20;12.82;;;6.43;;
68192;SDS011;55012;47.562;18.414;2023-06-22T06:03:45;11.02;;;6.07;;
68192;SDS011;55012;47.562;18.414;2023-06-22T06:06:11;12.10;;;6.10;;
68192;SDS011;55012;47.562;18.414;2023-06-22T06:08:37;11.25;;;7.00;;
68192;SDS011;55012;47.562;18.414;2023-06-22T06:11:03;12.05;;;5.78;;
68192;SDS011;55012;47.562;18.414;2023-06-22T06:13:29;11.65;;;5.82;;
68192;SDS011;55012;47.562;18.414;2023-06-22T06:15:56;9.98;;;5.57;;
68192;SDS011;55012;47.562;18.414;2023-06-22T06:18:22;9.88;;;5.32;;
68192;SDS011;55012;47.562;18.414;2023-06-22T06:20:48;11.60;;;5.78;;
68192;SDS011;55012;47.562;18.414;2023-06-22T06:23:13;16.98;;;5.82;;
68192;SDS011;55012;47.562;18.414;2023-06-22T06:25:39;13.13;;;5.53;;
68192;SDS011;55012;47.562;18.414;2023-06-22T06:28:04;11.70;;;5.45;;
68192;SDS011;55012;47.562;18.414;2023-06-22T06:30:30;10.25;;;5.78;;
68192;SDS011;55012;47.562;18.414;2023-06-22T06:32:55;17.23;;;5.80;;
68192;SDS011;55012;47.562;18.414;2023-06-22T06:35:21;13.35;;;5.43;;
68192;SDS011;55012;47.562;18.414;2023-06-22T06:37:47;19.92;;;5.10;;
68192;SDS011;55012;47.562;18.414;2023-06-22T06:40:14;22.50;;;5.38;;
68192;SDS011;55012;47.562;18.414;2023-06-22T06:42:44;23.48;;;4.90;;
68192;SDS011;55012;47.562;18.414;2023-06-22T06:45:12;24.33;;;5.30;;
68192;SDS011;55012;47.562;18.414;2023-06-22T06:47:42;22.58;;;5.38;;
68192;SDS011;55012;47.562;18.414;2023-06-22T06:50:08;24.00;;;5.43;;
68192;SDS011;55012;47.562;18.414;2023-06-22T06:52:34;21.38;;;5.50;;
68192;SDS011;55012;47.562;18.414;2023-06-22T06:55:00;19.95;;;4.93;;
68192;SDS011;55012;47.562;18.414;2023-06-22T06:57:26;21.23;;;5.28;;
68192;SDS011;55012;47.562;18.414;2023-06-22T06:59:55;16.70;;;4.82;;
68192;SDS011;55012;47.562;18.414;2023-06-22T07:02:21;15.35;;;4.90;;
68192;SDS011;55012;47.562;18.414;2023-06-22T07:04:47;12.20;;;4.53;;
68192;SDS011;55012;47.562;18.414;2023-06-22T07:07:13;13.00;;;4.25;;
68192;SDS011;55012;47.562;18.414;2023-06-22T07:09:39;9.45;;;3.67;;
68192;SDS011;55012;47.562;18.414;2023-06-22T07:12:04;13.15;;;3.88;;
68192;SDS011;55012;47.562;18.414;2023-06-22T07:14:30;8.48;;;3.67;;
68192;SDS011;55012;47.562;18.414;2023-06-22T07:16:57;11.35;;;3.78;;
68192;SDS011;55012;47.562;18.414;2023-06-22T07:19:25;6.50;;;3.50;;
68192;SDS011;55012;47.562;18.414;2023-06-22T07:21:52;9.18;;;3.53;;
68192;SDS011;55012;47.562;18.414;2023-06-22T07:24:19;10.02;;;3.70;;
68192;SDS011;55012;47.562;18.414;2023-06-22T07:26:48;6.75;;;3.03;;
68192;SDS011;55012;47.562;18.414;2023-06-22T07:29:15;7.30;;;3.28;;
68192;SDS011;55012;47.562;18.414;2023-06-22T07:31:42;7.57;;;3.10;;
68192;SDS011;55012;47.562;18.414;2023-06-22T07:34:07;7.70;;;2.90;;
68192;SDS011;55012;47.562;18.414;2023-06-22T07:36:33;8.20;;;3.15;;
68192;SDS011;55012;47.562;18.414;2023-06-22T07:39:00;10.93;;;3.40;;
68192;SDS011;55012;47.562;18.414;2023-06-22T07:41:26;7.70;;;3.15;;
68192;SDS011;55012;47.562;18.414;2023-06-22T07:43:51;7.40;;;3.33;;
68192;SDS011;55012;47.562;18.414;2023-06-22T07:46:17;6.82;;;3.40;;
68192;SDS011;55012;47.562;18.414;2023-06-22T07:48:42;7.78;;;3.45;;
68192;SDS011;55012;47.562;18.414;2023-06-22T07:51:08;6.72;;;3.50;;
68192;SDS011;55012;47.562;18.414;2023-06-22T07:53:34;7.97;;;3.17;;
68192;SDS011;55012;47.562;18.414;2023-06-22T07:56:01;6.63;;;3.40;;
68192;SDS011;55012;47.562;18.414;2023-06-22T07:58:31;8.45;;;3.47;;
68192;SDS011;55012;47.562;18.414;2023-06-22T08:00:57;8.27;;;3.65;;
68192;SDS011;55012;47.562;18.414;2023-06-22T08:03:22;6.55;;;3.80;;
68192;SDS011;55012;47.562;18.414;2023-06-22T08:05:48;11.10;;;3.78;;
68192;SDS011;55012;47.562;18.414;2023-06-22T08:08:14;9.63;;;3.88;;
68192;SDS011;55012;47.562;18.414;2023-06-22T08:10:39;9.20;;;3.67;;
68192;SDS011;55012;47.562;18.414;2023-06-22T08:13:06;9.43;;;3.75;;
68192;SDS011;55012;47.562;18.414;2023-06-22T08:15:31;11.60;;;3.78;;
68192;SDS011;55012;47.562;18.414;2023-06-22T08:17:57;10.45;;;3.97;;
68192;SDS011;55012;47.562;18.414;2023-06-22T08:20:23;13.05;;;3.97;;
68192;SDS011;55012;47.562;18.414;2023-06-22T08:22:48;5.57;;;3.47;;
68192;SDS011;55012;47.562;18.414;2023-06-22T08:25:14;9.38;;;4.03;;
68192;SDS011;55012;47.562;18.414;2023-06-22T08:27:39;6.93;;;3.70;;
68192;SDS011;55012;47.562;18.414;2023-06-22T08:30:05;9.93;;;4.20;;
68192;SDS011;55012;47.562;18.414;2023-06-22T08:32:32;6.63;;;3.90;;
68192;SDS011;55012;47.562;18.414;2023-06-22T08:34:57;8.38;;;3.70;;
68192;SDS011;55012;47.562;18.414;2023-06-22T08:37:23;10.90;;;4.43;;
68192;SDS011;55012;47.562;18.414;2023-06-22T08:39:58;9.07;;;4.53;;
68192;SDS011;55012;47.562;18.414;2023-06-22T08:42:26;8.52;;;4.50;;
68192;SDS011;55012;47.562;18.414;2023-06-22T08:44:51;8.23;;;4.90;;
68192;SDS011;55012;47.562;18.414;2023-06-22T08:47:17;10.93;;;4.80;;
68192;SDS011;55012;47.562;18.414;2023-06-22T08:49:43;9.85;;;4.50;;
68192;SDS011;55012;47.562;18.414;2023-06-22T08:52:08;8.65;;;4.25;;
68192;SDS011;55012;47.562;18.414;2023-06-22T08:54:34;10.82;;;5.63;;
68192;SDS011;55012;47.562;18.414;2023-06-22T08:57:00;7.68;;;4.65;;
68192;SDS011;55012;47.562;18.414;2023-06-22T08:59:25;8.90;;;4.90;;
68192;SDS011;55012;47.562;18.414;2023-06-22T09:01:54;11.57;;;5.25;;
68192;SDS011;55012;47.562;18.414;2023-06-22T09:04:19;8.95;;;4.93;;
68192;SDS011;55012;47.562;18.414;2023-06-22T09:06:47;9.75;;;5.50;;
68192;SDS011;55012;47.562;18.414;2023-06-22T09:09:17;9.20;;;4.97;;
68192;SDS011;55012;47.562;18.414;2023-06-22T09:11:43;10.88;;;5.15;;
68192;SDS011;55012;47.562;18.414;2023-06-22T09:14:10;10.90;;;5.65;;
68192;SDS011;55012;47.562;18.414;2023-06-22T09:16:36;11.73;;;6.05;;
68192;SDS011;55012;47.562;18.414;2023-06-22T09:19:02;9.45;;;5.90;;
68192;SDS011;55012;47.562;18.414;2023-06-22T09:21:27;10.32;;;5.70;;
68192;SDS011;55012;47.562;18.414;2023-06-22T09:23:53;10.10;;;5.75;;
68192;SDS011;55012;47.562;18.414;2023-06-22T09:26:18;11.10;;;5.90;;
68192;SDS011;55012;47.562;18.414;2023-06-22T09:28:44;9.95;;;6.50;;
68192;SDS011;55012;47.562;18.414;2023-06-22T09:31:09;11.80;;;6.80;;
68192;SDS011;55012;47.562;18.414;2023-06-22T09:33:35;10.52;;;6.82;;
68192;SDS011;55012;47.562;18.414;2023-06-22T09:36:03;11.48;;;7.78;;
68192;SDS011;55012;47.562;18.414;2023-06-22T09:38:30;12.27;;;7.68;;
68192;SDS011;55012;47.562;18.414;2023-06-22T09:40:55;10.77;;;7.28;;
68192;SDS011;55012;47.562;18.414;2023-06-22T09:43:21;11.88;;;7.50;;
68192;SDS011;55012;47.562;18.414;2023-06-22T09:45:46;10.13;;;7.10;;
68192;SDS011;55012;47.562;18.414;2023-06-22T09:48:12;11.48;;;7.40;;
68192;SDS011;55012;47.562;18.414;2023-06-22T09:50:37;11.35;;;7.50;;
68192;SDS011;55012;47.562;18.414;2023-06-22T09:53:03;11.90;;;7.70;;
68192;SDS011;55012;47.562;18.414;2023-06-22T09:55:28;11.57;;;7.88;;
68192;SDS011;55012;47.562;18.414;2023-06-22T09:57:53;12.02;;;7.75;;
68192;SDS011;55012;47.562;18.414;2023-06-22T10:00:20;11.32;;;7.60;;
68192;SDS011;55012;47.562;18.414;2023-06-22T10:02:47;12.63;;;7.63;;
68192;SDS011;55012;47.562;18.414;2023-06-22T10:05:13;10.80;;;7.93;;
68192;SDS011;55012;47.562;18.414;2023-06-22T10:07:38;11.43;;;7.60;;
68192;SDS011;55012;47.562;18.414;2023-06-22T10:10:07;11.73;;;7.43;;
68192;SDS011;55012;47.562;18.414;2023-06-22T10:12:33;11.40;;;7.53;;
68192;SDS011;55012;47.562;18.414;2023-06-22T10:14:59;13.43;;;7.53;;
68192;SDS011;55012;47.562;18.414;2023-06-22T10:17:24;14.60;;;8.23;;
68192;SDS011;55012;47.562;18.414;2023-06-22T10:19:50;11.35;;;7.25;;
68192;SDS011;55012;47.562;18.414;2023-06-22T10:22:15;12.52;;;7.72;;
68192;SDS011;55012;47.562;18.414;2023-06-22T10:24:41;15.45;;;7.80;;
68192;SDS011;55012;47.562;18.414;2023-06-22T10:27:12;10.13;;;7.53;;
68192;SDS011;55012;47.562;18.414;2023-06-22T10:29:38;16.17;;;8.10;;
68192;SDS011;55012;47.562;18.414;2023-06-22T10:32:04;10.85;;;7.18;;
68192;SDS011;55012;47.562;18.414;2023-06-22T10:34:30;13.25;;;7.53;;
68192;SDS011;55012;47.562;18.414;2023-06-22T10:36:55;15.45;;;8.20;;
68192;SDS011;55012;47.562;18.414;2023-06-22T10:39:21;17.48;;;7.88;;
68192;SDS011;55012;47.562;18.414;2023-06-22T10:41:46;14.20;;;8.13;;
68192;SDS011;55012;47.562;18.414;2023-06-22T10:44:12;12.60;;;7.35;;
68192;SDS011;55012;47.562;18.414;2023-06-22T10:46:38;10.70;;;7.45;;
68192;SDS011;55012;47.562;18.414;2023-06-22T10:49:04;11.48;;;7.47;;
68192;SDS011;55012;47.562;18.414;2023-06-22T10:51:29;14.00;;;8.10;;
68192;SDS011;55012;47.562;18.414;2023-06-22T10:53:56;12.27;;;7.50;;
68192;SDS011;55012;47.562;18.414;2023-06-22T10:56:22;14.00;;;8.05;;
68192;SDS011;55012;47.562;18.414;2023-06-22T10:58:47;12.60;;;7.80;;
68192;SDS011;55012;47.562;18.414;2023-06-22T11:01:12;13.13;;;7.85;;
68192;SDS011;55012;47.562;18.414;2023-06-22T11:03:38;14.00;;;8.35;;
68192;SDS011;55012;47.562;18.414;2023-06-22T11:06:04;10.70;;;8.00;;
68192;SDS011;55012;47.562;18.414;2023-06-22T11:08:29;11.90;;;8.05;;
68192;SDS011;55012;47.562;18.414;2023-06-22T11:10:54;11.43;;;7.45;;
68192;SDS011;55012;47.562;18.414;2023-06-22T11:13:20;9.75;;;7.82;;
68192;SDS011;55012;47.562;18.414;2023-06-22T11:15:45;11.40;;;7.95;;
68192;SDS011;55012;47.562;18.414;2023-06-22T11:18:11;16.50;;;8.55;;
68192;SDS011;55012;47.562;18.414;2023-06-22T11:20:36;17.17;;;8.70;;
68192;SDS011;55012;47.562;18.414;2023-06-22T11:23:06;12.45;;;7.63;;
68192;SDS011;55012;47.562;18.414;2023-06-22T11:25:32;9.48;;;7.85;;
68192;SDS011;55012;47.562;18.414;2023-06-22T11:28:01;10.73;;;7.78;;
68192;SDS011;55012;47.562;18.414;2023-06-22T11:30:27;11.00;;;7.63;;
68192;SDS011;55012;47.562;18.414;2023-06-22T11:32:53;12.07;;;7.78;;
68192;SDS011;55012;47.562;18.414;2023-06-22T11:35:18;13.82;;;8.00;;
68192;SDS011;55012;47.562;18.414;2023-06-22T11:37:44;13.65;;;8.50;;
68192;SDS011;55012;47.562;18.414;2023-06-22T11:40:09;13.18;;;7.90;;
68192;SDS011;55012;47.562;18.414;2023-06-22T11:42:35;14.18;;;8.07;;
68192;SDS011;55012;47.562;18.414;2023-06-22T11:45:01;13.80;;;8.30;;
68192;SDS011;55012;47.562;18.414;2023-06-22T11:47:28;14.27;;;8.82;;
68192;SDS011;55012;47.562;18.414;2023-06-22T11:49:54;14.82;;;8.82;;
68192;SDS011;55012;47.562;18.414;2023-06-22T11:52:19;11.77;;;7.50;;
68192;SDS011;55012;47.562;18.414;2023-06-22T11:54:45;13.95;;;7.90;;
68192;SDS011;55012;47.562;18.414;2023-06-22T11:57:10;12.38;;;8.20;;
68192;SDS011;55012;47.562;18.414;2023-06-22T11:59:36;13.85;;;8.52;;
68192;SDS011;55012;47.562;18.414;2023-06-22T12:02:01;14.55;;;8.15;;
68192;SDS011;55012;47.562;18.414;2023-06-22T12:04:27;13.55;;;8.50;;
68192;SDS011;55012;47.562;18.414;2023-06-22T12:06:52;12.88;;;7.82;;
68192;SDS011;55012;47.562;18.414;2023-06-22T12:09:18;13.50;;;8.23;;
68192;SDS011;55012;47.562;18.414;2023-06-22T12:11:43;17.33;;;8.35;;
68192;SDS011;55012;47.562;18.414;2023-06-22T12:14:09;13.77;;;8.20;;
68192;SDS011;55012;47.562;18.414;2023-06-22T12:16:34;13.48;;;7.72;;
68192;SDS011;55012;47.562;18.414;2023-06-22T12:19:00;14.10;;;8.07;;
68192;SDS011;55012;47.562;18.414;2023-06-22T12:21:25;12.45;;;8.13;;
68192;SDS011;55012;47.562;18.414;2023-06-22T12:23:51;13.05;;;8.38;;
68192;SDS011;55012;47.562;18.414;2023-06-22T12:26:16;14.35;;;8.10;;
68192;SDS011;55012;47.562;18.414;2023-06-22T12:28:41;10.68;;;8.23;;
68192;SDS011;55012;47.562;18.414;2023-06-22T12:31:07;12.80;;;8.75;;
68192;SDS011;55012;47.562;18.414;2023-06-22T12:33:32;13.45;;;7.93;;
68192;SDS011;55012;47.562;18.414;2023-06-22T12:35:58;16.02;;;8.60;;
68192;SDS011;55012;47.562;18.414;2023-06-22T12:38:23;11.00;;;8.13;;
68192;SDS011;55012;47.562;18.414;2023-06-22T12:40:50;10.68;;;8.80;;
68192;SDS011;55012;47.562;18.414;2023-06-22T12:43:17;13.20;;;8.02;;
68192;SDS011;55012;47.562;18.414;2023-06-22T12:45:43;10.80;;;7.97;;
68192;SDS011;55012;47.562;18.414;2023-06-22T12:48:08;12.40;;;8.32;;
68192;SDS011;55012;47.562;18.414;2023-06-22T12:50:34;11.88;;;8.05;;
68192;SDS011;55012;47.562;18.414;2023-06-22T12:52:59;10.25;;;7.88;;
68192;SDS011;55012;47.562;18.414;2023-06-22T12:55:27;10.57;;;8.38;;
68192;SDS011;55012;47.562;18.414;2023-06-22T12:57:55;12.52;;;8.60;;
68192;SDS011;55012;47.562;18.414;2023-06-22T13:00:20;10.35;;;8.20;;
68192;SDS011;55012;47.562;18.414;2023-06-22T13:02:46;9.85;;;7.82;;
68192;SDS011;55012;47.562;18.414;2023-06-22T13:05:11;13.43;;;7.85;;
68192;SDS011;55012;47.562;18.414;2023-06-22T13:07:37;10.93;;;7.65;;
68192;SDS011;55012;47.562;18.414;2023-06-22T13:10:03;11.80;;;8.00;;
68192;SDS011;55012;47.562;18.414;2023-06-22T13:12:28;9.45;;;7.85;;
68192;SDS011;55012;47.562;18.414;2023-06-22T13:14:54;10.48;;;7.55;;
68192;SDS011;55012;47.562;18.414;2023-06-22T13:17:20;11.75;;;7.72;;
68192;SDS011;55012;47.562;18.414;2023-06-22T13:19:46;9.60;;;7.80;;
68192;SDS011;55012;47.562;18.414;2023-06-22T13:22:28;12.20;;;7.38;;
68192;SDS011;55012;47.562;18.414;2023-06-22T13:24:55;9.05;;;7.70;;
68192;SDS011;55012;47.562;18.414;2023-06-22T13:27:21;10.68;;;7.97;;
68192;SDS011;55012;47.562;18.414;2023-06-22T13:29:47;11.15;;;7.88;;
68192;SDS011;55012;47.562;18.414;2023-06-22T13:32:12;12.25;;;7.57;;
68192;SDS011;55012;47.562;18.414;2023-06-22T13:34:38;10.52;;;7.60;;
68192;SDS011;55012;47.562;18.414;2023-06-22T13:37:03;9.85;;;7.70;;
68192;SDS011;55012;47.562;18.414;2023-06-22T13:39:29;12.02;;;8.32;;
68192;SDS011;55012;47.562;18.414;2023-06-22T13:41:55;12.60;;;7.88;;
68192;SDS011;55012;47.562;18.414;2023-06-22T13:44:21;13.43;;;7.97;;
68192;SDS011;55012;47.562;18.414;2023-06-22T13:46:47;10.13;;;7.97;;
68192;SDS011;55012;47.562;18.414;2023-06-22T13:49:12;11.13;;;7.82;;
68192;SDS011;55012;47.562;18.414;2023-06-22T13:51:38;12.02;;;7.57;;
68192;SDS011;55012;47.562;18.414;2023-06-22T13:54:03;11.90;;;7.78;;
68192;SDS011;55012;47.562;18.414;2023-06-22T13:56:29;10.68;;;7.72;;
68192;SDS011;55012;47.562;18.414;2023-06-22T13:58:54;13.15;;;8.40;;
68192;SDS011;55012;47.562;18.414;2023-06-22T14:01:19;9.15;;;7.38;;
68192;SDS011;55012;47.562;18.414;2023-06-22T14:03:45;8.60;;;7.65;;
68192;SDS011;55012;47.562;18.414;2023-06-22T14:06:12;11.85;;;8.15;;
68192;SDS011;55012;47.562;18.414;2023-06-22T14:08:38;11.65;;;7.82;;
68192;SDS011;55012;47.562;18.414;2023-06-22T14:11:03;10.13;;;7.78;;
68192;SDS011;55012;47.562;18.414;2023-06-22T14:13:32;9.85;;;7.80;;
68192;SDS011;55012;47.562;18.414;2023-06-22T14:15:57;11.70;;;7.72;;
68192;SDS011;55012;47.562;18.414;2023-06-22T14:18:23;10.65;;;7.75;;
68192;SDS011;55012;47.562;18.414;2023-06-22T14:20:48;10.73;;;7.70;;
68192;SDS011;55012;47.562;18.414;2023-06-22T14:23:14;12.10;;;8.07;;
68192;SDS011;55012;47.562;18.414;2023-06-22T14:25:40;9.43;;;7.80;;
68192;SDS011;55012;47.562;18.414;2023-06-22T14:28:05;10.73;;;7.47;;
68192;SDS011;55012;47.562;18.414;2023-06-22T14:30:31;12.25;;;7.90;;
68192;SDS011;55012;47.562;18.414;2023-06-22T14:32:57;11.55;;;7.95;;
68192;SDS011;55012;47.562;18.414;2023-06-22T14:35:22;12.02;;;8.23;;